createdAt,value
2023-02-27T00:01:37.342Z,102173.94
2023-02-27T00:05:41.601Z,102161.59
2023-02-27T00:09:43.260Z,102167.09
2023-02-27T00:13:44.956Z,102161.41
2023-02-27T00:17:46.536Z,102170.25
2023-02-27T00:21:48.154Z,102171.00
2023-02-27T00:25:49.970Z,102170.81
2023-02-27T00:29:51.422Z,102173.91
2023-02-27T00:33:52.920Z,102174.78
2023-02-27T00:37:54.428Z,102169.75
2023-02-27T00:41:55.914Z,102163.72
2023-02-27T00:45:57.439Z,102170.41
2023-02-27T00:49:58.989Z,102169.16
2023-02-27T00:54:00.411Z,102168.25
2023-02-27T00:58:01.852Z,102169.69
2023-02-27T01:02:03.330Z,102165.72
2023-02-27T01:06:05.193Z,102161.53
2023-02-27T01:10:08.798Z,102164.41
2023-02-27T01:14:10.276Z,102160.94
2023-02-27T01:18:11.759Z,102155.66
2023-02-27T01:22:13.316Z,102154.66
2023-02-27T01:26:14.779Z,102152.69
2023-02-27T01:30:16.803Z,102153.03
2023-02-27T01:34:18.372Z,102144.88
2023-02-27T01:38:19.900Z,102153.88
2023-02-27T01:42:26.616Z,102147.91
2023-02-27T01:46:30.008Z,102150.34
2023-02-27T01:50:31.731Z,102151.97
2023-02-27T01:54:38.318Z,102149.97
2023-02-27T01:58:41.245Z,102149.31
2023-02-27T02:02:53.556Z,102153.78
2023-02-27T02:07:04.403Z,102146.53
2023-02-27T02:11:07.554Z,102147.38
2023-02-27T02:15:09.683Z,102154.13
2023-02-27T02:19:48.018Z,102156.47
2023-02-27T02:24:28.386Z,102152.16
2023-02-27T02:28:32.832Z,102160.03
2023-02-27T02:32:59.128Z,102158.09
2023-02-27T02:37:47.866Z,102159.25
2023-02-27T02:42:04.600Z,102160.28
2023-02-27T02:46:19.283Z,102171.69
2023-02-27T02:50:39.662Z,102171.16
2023-02-27T02:54:45.482Z,102172.59
2023-02-27T02:59:15.122Z,102181.59
2023-02-27T03:03:28.909Z,102175.81
2023-02-27T03:07:35.524Z,102175.88
2023-02-27T03:11:42.006Z,102181.31
2023-02-27T03:15:59.363Z,102187.06
2023-02-27T03:20:06.925Z,102186.03
2023-02-27T03:24:14.553Z,102180.81
2023-02-27T03:28:23.593Z,102194.75
2023-02-27T03:32:34.967Z,102197.22
2023-02-27T03:36:54.586Z,102194.75
2023-02-27T03:41:14.885Z,102196.16
2023-02-27T03:45:22.034Z,102195.09
2023-02-27T03:49:23.476Z,102201.34
2023-02-27T03:53:37.851Z,102211.44
2023-02-27T03:57:40.309Z,102212.94
2023-02-27T04:01:44.248Z,102207.91
2023-02-27T04:05:46.520Z,102213.75
2023-02-27T04:09:53.602Z,102216.66
2023-02-27T04:14:19.774Z,102231.19
2023-02-27T04:18:39.060Z,102231.81
2023-02-27T04:22:43.647Z,102233.44
2023-02-27T04:26:54.459Z,102236.28
2023-02-27T04:31:24.622Z,102243.84
2023-02-27T04:35:37.648Z,102241.72
2023-02-27T04:40:06.230Z,102241.03
2023-02-27T04:44:10.747Z,102242.56
2023-02-27T04:48:22.710Z,102249.53
2023-02-27T04:52:41.738Z,102244.25
2023-02-27T04:56:53.028Z,102253.22
2023-02-27T05:01:03.654Z,102253.31
2023-02-27T05:05:11.321Z,102250.47
2023-02-27T05:09:26.692Z,102244.47
2023-02-27T05:13:34.491Z,102246.72
2023-02-27T05:18:06.371Z,102253.69
2023-02-27T05:22:26.590Z,102254.59
2023-02-27T05:26:53.144Z,102246.72
2023-02-27T05:31:07.476Z,102251.19
2023-02-27T05:35:18.269Z,102249.16
2023-02-27T05:39:23.640Z,102257.09
2023-02-27T05:43:29.351Z,102259.81
2023-02-27T05:47:34.480Z,102280.13
2023-02-27T05:51:38.480Z,102270.56
2023-02-27T05:55:46.814Z,102269.75
2023-02-27T05:59:53.666Z,102274.38
2023-02-27T06:03:55.472Z,102288.88
2023-02-27T06:07:56.974Z,102289.81
2023-02-27T06:12:01.235Z,102283.81
2023-02-27T06:16:02.940Z,102296.66
2023-02-27T06:20:06.822Z,102308.22
2023-02-27T06:24:08.401Z,102308.09
2023-02-27T06:28:10.985Z,102314.63
2023-02-27T06:32:12.440Z,102325.03
2023-02-27T06:36:13.978Z,102307.31
2023-02-27T06:40:16.127Z,102314.41
2023-02-27T06:44:19.492Z,102319.75
2023-02-27T06:48:21.091Z,102313.34
2023-02-27T06:52:22.574Z,102314.53
2023-02-27T06:56:24.034Z,102312.75
2023-02-27T07:00:25.524Z,102319.75
2023-02-27T07:04:27.045Z,102319.75
2023-02-27T07:08:28.680Z,102343.72
2023-02-27T07:12:30.106Z,102357.66
2023-02-27T07:16:31.577Z,102360.38
2023-02-27T07:20:33.107Z,102373.28
2023-02-27T07:24:34.588Z,102391.81
2023-02-27T07:28:36.054Z,102373.63
2023-02-27T07:32:37.589Z,102376.97
2023-02-27T07:36:39.211Z,102369.41
2023-02-27T07:40:40.698Z,102376.16
2023-02-27T07:44:42.233Z,102371.25
2023-02-27T07:48:43.790Z,102369.56
2023-02-27T07:52:45.839Z,102377.47
2023-02-27T07:56:47.260Z,102371.03
2023-02-27T08:00:49.075Z,102372.97
2023-02-27T08:04:51.845Z,102385.44
2023-02-27T08:08:53.406Z,102382.00
2023-02-27T08:12:55.197Z,102384.34
2023-02-27T08:16:56.637Z,102385.34
2023-02-27T08:20:58.141Z,102386.41
2023-02-27T08:25:01.058Z,102391.75
2023-02-27T08:29:02.546Z,102403.44
2023-02-27T08:33:04.014Z,102397.13
2023-02-27T08:37:05.468Z,102398.81
2023-02-27T08:41:06.926Z,102400.59
2023-02-27T08:45:09.747Z,102396.06
2023-02-27T08:49:11.524Z,102393.44
2023-02-27T08:53:13.490Z,102398.72
2023-02-27T08:57:15.155Z,102395.63
2023-02-27T09:01:16.668Z,102406.03
2023-02-27T09:05:18.241Z,102407.72
2023-02-27T09:09:20.427Z,102404.44
2023-02-27T09:13:22.238Z,102412.25
2023-02-27T09:17:23.684Z,102409.81
2023-02-27T09:21:25.347Z,102417.09
2023-02-27T09:25:27.760Z,102419.69
2023-02-27T09:29:29.260Z,102418.38
2023-02-27T09:33:31.381Z,102420.75
2023-02-27T09:37:32.859Z,102420.00
2023-02-27T09:41:50.354Z,102423.38
2023-02-27T09:45:54.903Z,102418.47
2023-02-27T09:50:27.102Z,102426.69
2023-02-27T09:54:33.365Z,102431.69
2023-02-27T09:58:43.575Z,102426.97
2023-02-27T10:03:10.435Z,102436.88
2023-02-27T10:07:43.884Z,102440.13
2023-02-27T10:12:01.852Z,102439.34
2023-02-27T10:16:03.978Z,102439.34
2023-02-27T10:20:15.841Z,102435.78
2023-02-27T10:24:21.547Z,102442.66
2023-02-27T10:28:23.093Z,102447.06
2023-02-27T10:32:31.713Z,102453.91
2023-02-27T10:36:34.872Z,102457.75
2023-02-27T10:40:40.131Z,102459.41
2023-02-27T10:44:41.865Z,102449.50
2023-02-27T10:48:43.489Z,102456.09
2023-02-27T10:52:57.856Z,102461.03
2023-02-27T10:57:06.085Z,102454.72
2023-02-27T11:01:10.554Z,102460.75
2023-02-27T11:05:32.284Z,102449.94
2023-02-27T11:09:34.678Z,102454.22
2023-02-27T11:13:38.137Z,102450.91
2023-02-27T11:17:39.898Z,102442.66
2023-02-27T11:21:41.464Z,102454.84
2023-02-27T11:25:43.130Z,102452.09
2023-02-27T11:30:05.492Z,102450.44
2023-02-27T11:34:08.255Z,102443.13
2023-02-27T11:38:29.932Z,102443.69
2023-02-27T11:42:34.454Z,102447.59
2023-02-27T11:46:48.413Z,102446.66
2023-02-27T11:51:05.690Z,102437.34
2023-02-27T11:55:15.913Z,102443.19
2023-02-27T11:59:32.677Z,102432.88
2023-02-27T12:03:59.513Z,102426.38
2023-02-27T12:08:42.718Z,102434.91
2023-02-27T12:13:19.646Z,102433.31
2023-02-27T12:17:40.920Z,102425.59
2023-02-27T12:21:50.235Z,102421.16
2023-02-27T12:26:03.382Z,102430.47
2023-02-27T12:30:17.561Z,102425.13
2023-02-27T12:34:37.157Z,102433.94
2023-02-27T12:38:39.325Z,102427.03
2023-02-27T12:43:10.858Z,102425.63
2023-02-27T12:47:33.893Z,102425.56
2023-02-27T12:51:44.132Z,102421.88
2023-02-27T12:55:54.256Z,102425.63
2023-02-27T13:00:16.106Z,102424.41
2023-02-27T13:04:23.408Z,102433.72
2023-02-27T13:08:46.800Z,102433.88
2023-02-27T13:12:57.150Z,102426.97
2023-02-27T13:17:31.464Z,102435.47
2023-02-27T13:21:55.247Z,102432.22
2023-02-27T13:25:58.971Z,102436.59
2023-02-27T13:30:03.445Z,102432.78
2023-02-27T13:34:16.976Z,102428.41
2023-02-27T13:38:44.835Z,102436.59
2023-02-27T13:42:46.250Z,102434.38
2023-02-27T13:46:48.118Z,102438.50
2023-02-27T13:50:51.484Z,102429.44
2023-02-27T13:54:55.184Z,102428.19
2023-02-27T13:59:21.541Z,102428.75
2023-02-27T14:03:29.919Z,102431.16
2023-02-27T14:07:55.363Z,102430.84
2023-02-27T14:12:02.061Z,102441.78
2023-02-27T14:16:04.602Z,102439.00
2023-02-27T14:20:14.623Z,102444.84
2023-02-27T14:24:16.986Z,102439.50
2023-02-27T14:28:46.378Z,102443.75
2023-02-27T14:32:58.064Z,102450.28
2023-02-27T14:37:02.186Z,102459.69
2023-02-27T14:41:22.145Z,102455.84
2023-02-27T14:45:25.043Z,102460.75
2023-02-27T14:49:30.510Z,102458.31
2023-02-27T14:53:32.865Z,102461.59
2023-02-27T14:57:34.353Z,102464.88
2023-02-27T15:01:36.687Z,102462.41
2023-02-27T15:05:38.768Z,102462.66
2023-02-27T15:09:44.698Z,102467.06
2023-02-27T15:13:48.061Z,102468.72
2023-02-27T15:17:52.760Z,102469.28
2023-02-27T15:21:58.620Z,102471.47
2023-02-27T15:26:00.524Z,102476.97
2023-02-27T15:30:04.071Z,102482.47
2023-02-27T15:34:14.210Z,102479.97
2023-02-27T15:38:30.411Z,102476.69
2023-02-27T15:42:36.331Z,102483.75
2023-02-27T15:46:38.261Z,102487.38
2023-02-27T15:50:43.909Z,102491.50
2023-02-27T15:54:52.674Z,102489.25
2023-02-27T15:59:00.215Z,102497.53
2023-02-27T16:03:02.399Z,102494.78
2023-02-27T16:07:10.540Z,102497.53
2023-02-27T16:11:24.777Z,102494.22
2023-02-27T16:15:31.249Z,102503.56
2023-02-27T16:19:32.772Z,102502.47
2023-02-27T16:23:35.137Z,102502.41
2023-02-27T16:27:37.218Z,102509.81
2023-02-27T16:31:40.776Z,102515.50
2023-02-27T16:35:42.438Z,102514.44
2023-02-27T16:39:43.897Z,102515.25
2023-02-27T16:43:47.001Z,102516.38
2023-02-27T16:47:49.739Z,102527.59
2023-02-27T16:51:51.692Z,102521.22
2023-02-27T16:55:55.008Z,102520.28
2023-02-27T16:59:57.283Z,102527.47
2023-02-27T17:03:59.772Z,102525.88
2023-02-27T17:08:01.888Z,102528.41
2023-02-27T17:12:03.450Z,102529.31
2023-02-27T17:16:06.316Z,102531.50
2023-02-27T17:20:09.205Z,102533.75
2023-02-27T17:24:10.703Z,102537.78
2023-02-27T17:28:12.727Z,102534.50
2023-02-27T17:32:14.552Z,102542.00
2023-02-27T17:36:16.087Z,102541.31
2023-02-27T17:40:17.856Z,102541.28
2023-02-27T17:44:21.481Z,102541.53
2023-02-27T17:48:23.095Z,102538.91
2023-02-27T17:52:24.646Z,102550.56
2023-02-27T17:56:26.431Z,102550.72
2023-02-27T18:00:28.209Z,102551.84
2023-02-27T18:04:29.720Z,102543.34
2023-02-27T18:08:32.133Z,102539.16
2023-02-27T18:12:34.204Z,102544.28
2023-02-27T18:16:35.980Z,102541.59
2023-02-27T18:20:37.477Z,102544.91
2023-02-27T18:24:38.943Z,102549.44
2023-02-27T18:28:40.500Z,102548.50
2023-02-27T18:32:42.575Z,102548.50
2023-02-27T18:36:44.249Z,102556.84
2023-02-27T18:40:45.917Z,102555.91
2023-02-27T18:44:48.125Z,102558.28
2023-02-27T18:48:50.106Z,102558.03
2023-02-27T18:52:51.669Z,102555.09
2023-02-27T18:56:53.148Z,102563.16
2023-02-27T19:00:54.918Z,102563.75
2023-02-27T19:04:56.412Z,102557.91
2023-02-27T19:08:57.866Z,102570.53
2023-02-27T19:12:59.321Z,102573.38
2023-02-27T19:17:00.852Z,102569.94
2023-02-27T19:21:04.172Z,102574.66
2023-02-27T19:25:06.082Z,102582.25
2023-02-27T19:29:07.840Z,102575.19
2023-02-27T19:33:09.369Z,102580.09
2023-02-27T19:37:10.908Z,102576.22
2023-02-27T19:41:14.232Z,102582.41
2023-02-27T19:45:15.816Z,102584.38
2023-02-27T19:49:17.544Z,102578.91
2023-02-27T19:53:19.233Z,102588.72
2023-02-27T19:57:21.920Z,102582.63
2023-02-27T20:01:28.735Z,102581.41
2023-02-27T20:05:30.291Z,102581.16
2023-02-27T20:09:33.254Z,102578.22
2023-02-27T20:13:35.064Z,102582.16
2023-02-27T20:17:41.214Z,102585.16
2023-02-27T20:21:43.902Z,102576.63
2023-02-27T20:25:45.363Z,102588.78
2023-02-27T20:29:53.426Z,102581.50
2023-02-27T20:33:55.893Z,102584.03
2023-02-27T20:37:57.346Z,102593.09
2023-02-27T20:41:58.866Z,102585.66
2023-02-27T20:46:08.337Z,102587.16
2023-02-27T20:50:11.251Z,102583.88
2023-02-27T20:54:16.456Z,102595.81
2023-02-27T20:58:17.961Z,102586.13
2023-02-27T21:02:19.392Z,102591.53
2023-02-27T21:06:21.048Z,102590.72
2023-02-27T21:10:22.925Z,102593.25
2023-02-27T21:14:24.410Z,102590.53
2023-02-27T21:18:25.921Z,102594.41
2023-02-27T21:22:27.576Z,102593.84
2023-02-27T21:26:35.233Z,102592.84
2023-02-27T21:30:37.478Z,102594.19
2023-02-27T21:34:38.960Z,102599.88
2023-02-27T21:38:40.641Z,102595.03
2023-02-27T21:42:45.218Z,102596.84
2023-02-27T21:46:47.376Z,102602.53
2023-02-27T21:50:49.289Z,102595.84
2023-02-27T21:54:50.714Z,102600.16
2023-02-27T21:58:52.154Z,102600.63
2023-02-27T22:02:53.672Z,102599.47
2023-02-27T22:06:55.255Z,102597.19
2023-02-27T22:10:58.364Z,102600.50
2023-02-27T22:14:59.780Z,102593.88
2023-02-27T22:19:08.664Z,102597.00
2023-02-27T22:23:10.132Z,102604.28
2023-02-27T22:27:11.563Z,102606.59
2023-02-27T22:31:15.147Z,102598.22
2023-02-27T22:35:16.754Z,102605.53
2023-02-27T22:39:19.292Z,102600.16
2023-02-27T22:43:20.737Z,102607.75
2023-02-27T22:47:22.185Z,102605.78
2023-02-27T22:51:25.309Z,102609.41
2023-02-27T22:55:26.845Z,102618.00
2023-02-27T22:59:28.517Z,102613.38
2023-02-27T23:03:29.983Z,102609.66
2023-02-27T23:07:33.286Z,102619.59
2023-02-27T23:11:34.793Z,102622.72
2023-02-27T23:15:38.594Z,102625.31
2023-02-27T23:19:40.201Z,102631.25
2023-02-27T23:23:41.872Z,102631.59
2023-02-27T23:27:43.423Z,102633.91
2023-02-27T23:31:45.175Z,102626.34
2023-02-27T23:35:47.514Z,102642.34
2023-02-27T23:39:48.983Z,102635.75
2023-02-27T23:44:12.060Z,102639.63
2023-02-27T23:48:13.773Z,102648.88
2023-02-27T23:52:15.220Z,102647.97
2023-02-27T23:56:21.090Z,102644.59
